SBOSBO LOS / DNMM
Speedbird OnlineSpeedbird Online LOS / DNMM

Murtala Muhammed International Airport
08:24 25°C

Location Lagos, Nigeria
Latitude: 6.5773701667785645
Longitude: 3.321160078048706
Web Airport Website | Wikipedia
Altitude 41 Meter / 135 Feet
Distance 5,005 KM / 3,110 Miles
from London.
Time Zone UTC +1 hours (Africa/Lagos)
Codes IATA: LOS
ICAO: DNMM
Currency £1 equals NGN 469.24
Runways
RunwayLength (m)Surface
18L2742Asphalt
18R3900Asphalt
36L3900Asphalt
36R2742Asphalt
Radio
TypeDescriptionFrequency
AFISLAGOS WEST120.9
AFISLAGOS EAST127.3
APPAPP124.3
ATIS123.8
TOWER118.1
Live ATC
METAR DNMM 060700Z 28003KT 9999 SCT009 25/24 Q1013 NOSIG
TAF TAF DNMM 060500Z 0606/0712 VRB02KT 9999 SCT009 PROB30 TEMPO 0606/0608 SCT009 FEW019CB BECMG 0608/0610 22010KT BKN013 PROB30 TEMPO 0612/0617 SCT013 FEW020CB PROB30 0715/0719 TS BECMG 0619/0621 VRB02KT SCT010 BECMG 0708/0710 23010KT BKN013
Weather As Of 06 Oct 2022 08:24
Description Scattered clouds
Wind 6 km/h from West (280°)
Cloud Cover 40%
Precipitation Rain: none, Snow: none
Sunrise 06:33
Sunset 18:35
Lounges Oasis Executive Lounge , Departure
ASL Premium Lounge, E
British Airways Lounge (Open), International
Rotations During the last 90 days there were
60 flights from LHR
59 flights to LHR


© 2017-2022 Speedbird Online